Time;durP1;ratioP1;P1;durP2;ratioP2;P2;SDS_P1;SDS_P2;PMS_P1;PMS_P2;Temp;Humidity;BMP_temperature;BMP_pressure;BME280_temperature;BME280_humidity;BME280_pressure;Samples;Min_cycle;Max_cycle;Signal;HPM_P1;HPM_P2
2021/12/11 00:00:42;;;;;;;18.77;12.88;;;;;;;6.61;66.01;100477.59;5065230;28;20060;-58
2021/12/11 00:03:15;;;;;;;21.40;13.80;;;;;;;6.61;66.34;100485.59;5072905;28;20109;-59
2021/12/11 00:05:46;;;;;;;23.77;14.40;;;;;;;6.61;66.21;100489.09;5059651;28;20044;-59
2021/12/11 00:08:17;;;;;;;21.05;13.20;;;;;;;6.61;66.42;100486.41;5062753;28;20129;-58
2021/12/11 00:10:52;;;;;;;24.52;14.05;;;;;;;6.59;66.35;100492.97;5061094;28;20067;-59
2021/12/11 00:13:24;;;;;;;21.52;13.15;;;;;;;6.59;66.50;100496.47;5069350;28;20044;-57
2021/12/11 00:15:53;;;;;;;25.02;14.85;;;;;;;6.59;66.49;100504.50;5065585;28;20045;-59
2021/12/11 00:18:24;;;;;;;24.67;15.50;;;;;;;6.58;66.09;100516.19;5063777;28;20048;-59
2021/12/11 00:20:57;;;;;;;24.33;15.25;;;;;;;6.57;66.64;100516.41;5062564;28;20079;-57
2021/12/11 00:23:29;;;;;;;26.13;16.48;;;;;;;6.58;66.27;100523.38;5070417;28;20446;-59
2021/12/11 00:25:58;;;;;;;28.77;15.20;;;;;;;6.58;66.55;100524.19;5069898;28;20055;-59
2021/12/11 00:28:27;;;;;;;23.02;15.13;;;;;;;6.56;66.50;100520.91;5063405;28;20064;-58
2021/12/11 00:30:55;;;;;;;22.55;15.02;;;;;;;6.46;66.63;100521.31;5062365;28;20053;-59
2021/12/11 00:33:25;;;;;;;25.02;14.98;;;;;;;6.55;66.84;100540.63;5063652;28;20049;-59
2021/12/11 00:35:56;;;;;;;26.33;16.13;;;;;;;6.56;66.34;100550.28;5062887;28;20056;-54
2021/12/11 00:38:32;;;;;;;22.30;15.35;;;;;;;6.56;66.52;100557.47;5062461;28;20522;-59
2021/12/11 00:41:02;;;;;;;28.85;16.98;;;;;;;6.54;66.75;100555.00;5064092;28;20083;-59
2021/12/11 00:43:34;;;;;;;22.70;15.38;;;;;;;6.53;66.38;100558.69;5064412;28;20131;-59
2021/12/11 00:46:06;;;;;;;24.00;16.30;;;;;;;6.53;66.43;100564.84;5065987;28;20067;-58
2021/12/11 00:48:35;;;;;;;21.90;15.85;;;;;;;6.55;66.52;100566.50;5067084;28;20068;-59
2021/12/11 00:51:07;;;;;;;25.05;15.70;;;;;;;6.53;66.28;100567.53;5062641;28;20295;-58
2021/12/11 00:53:38;;;;;;;25.98;16.27;;;;;;;6.56;66.38;100576.97;5072526;28;20144;-59
2021/12/11 00:56:10;;;;;;;22.85;15.13;;;;;;;6.50;66.46;100569.78;5065998;28;20088;-59
2021/12/11 00:58:40;;;;;;;30.27;16.98;;;;;;;6.55;66.59;100582.53;5068133;28;20045;-59
2021/12/11 01:01:13;;;;;;;25.77;15.80;;;;;;;6.41;66.40;100574.47;5067162;28;20049;-58
2021/12/11 01:03:46;;;;;;;27.77;16.50;;;;;;;6.50;66.53;100588.47;5066976;28;20118;-59
2021/12/11 01:06:19;;;;;;;27.88;16.70;;;;;;;6.48;66.58;100596.69;5066558;28;20049;-58
2021/12/11 01:08:54;;;;;;;22.25;16.33;;;;;;;6.48;66.43;100599.34;5070604;28;20494;-59
2021/12/11 01:11:28;;;;;;;24.02;16.27;;;;;;;6.45;66.25;100599.75;5066407;28;20064;-59
2021/12/11 01:14:09;;;;;;;27.52;16.42;;;;;;;6.46;66.51;100611.25;5062580;28;20490;-59
2021/12/11 01:16:38;;;;;;;24.55;17.25;;;;;;;6.45;66.68;100618.44;5061145;28;20063;-59
2021/12/11 01:19:07;;;;;;;28.58;16.73;;;;;;;6.45;66.46;100612.28;5070910;28;20124;-58
2021/12/11 01:21:54;;;;;;;24.02;15.63;;;;;;;6.43;66.29;100617.81;5067705;28;20041;-59
2021/12/11 01:24:31;;;;;;;22.15;15.93;;;;;;;6.43;66.41;100633.00;5064846;28;20052;-59
2021/12/11 01:27:05;;;;;;;24.15;16.83;;;;;;;6.42;66.14;100634.84;5065996;28;20081;-59
2021/12/11 01:29:34;;;;;;;26.17;16.52;;;;;;;6.43;66.33;100641.00;5066180;28;20056;-59
2021/12/11 01:32:03;;;;;;;26.33;17.15;;;;;;;6.41;66.20;100651.88;5065548;28;20049;-58
2021/12/11 01:34:32;;;;;;;25.77;16.83;;;;;;;6.32;66.17;100639.75;5063124;28;20191;-58
2021/12/11 01:37:01;;;;;;;26.70;16.92;;;;;;;6.35;66.02;100650.00;5064981;28;20049;-58
2021/12/11 01:39:32;;;;;;;26.95;17.73;;;;;;;6.36;66.11;100657.00;5072684;28;20040;-57
2021/12/11 01:42:12;;;;;;;23.52;15.90;;;;;;;6.37;66.14;100657.81;5065601;28;20049;-60
2021/12/11 01:44:42;;;;;;;25.15;16.35;;;;;;;6.38;66.21;100670.16;5063552;28;20446;-58
2021/12/11 01:47:14;;;;;;;25.98;17.38;;;;;;;6.38;65.89;100683.50;5066675;28;20041;-58
2021/12/11 01:49:45;;;;;;;23.55;15.95;;;;;;;6.37;65.86;100679.19;5060559;28;20057;-57
2021/12/11 01:52:18;;;;;;;25.38;16.90;;;;;;;6.36;65.84;100686.34;5070092;28;20049;-57
2021/12/11 01:54:48;;;;;;;24.55;17.15;;;;;;;6.33;65.75;100694.75;5071204;28;20080;-57
2021/12/11 01:57:23;;;;;;;23.05;15.48;;;;;;;6.32;65.67;100698.44;5059772;28;20045;-58
2021/12/11 01:59:59;;;;;;;23.58;15.73;;;;;;;6.32;65.87;100708.31;5064756;28;20148;-55
2021/12/11 02:02:31;;;;;;;24.73;16.77;;;;;;;6.30;65.80;100716.50;5065622;28;20485;-58
2021/12/11 02:05:00;;;;;;;23.55;15.40;;;;;;;6.21;65.55;100717.69;5074307;28;20056;-57
2021/12/11 02:07:31;;;;;;;24.17;15.48;;;;;;;6.30;65.86;100734.38;5066080;28;20049;-57
2021/12/11 02:10:01;;;;;;;26.38;17.35;;;;;;;6.29;66.00;100749.56;5077472;28;20044;-58
2021/12/11 02:12:35;;;;;;;23.38;16.55;;;;;;;6.27;65.82;100743.59;5065495;28;20075;-59
2021/12/11 02:15:07;;;;;;;24.20;15.85;;;;;;;6.29;65.76;100746.06;5063711;28;20045;-58
2021/12/11 02:17:40;;;;;;;24.75;16.95;;;;;;;6.25;66.02;100750.97;5066681;28;20059;-58
2021/12/11 02:20:11;;;;;;;25.88;16.92;;;;;;;6.24;65.83;100749.31;5077072;28;20076;-57
2021/12/11 02:22:43;;;;;;;23.55;16.08;;;;;;;6.24;66.00;100751.16;5072497;28;20044;-57
2021/12/11 02:25:14;;;;;;;23.10;15.57;;;;;;;6.24;65.94;100752.00;5061569;28;20052;-57
2021/12/11 02:27:46;;;;;;;25.85;16.08;;;;;;;6.22;65.83;100748.69;5066870;28;20041;-57
2021/12/11 02:30:20;;;;;;;21.75;15.23;;;;;;;6.24;65.84;100759.16;5063647;28;20582;-56
2021/12/11 02:32:58;;;;;;;25.85;15.57;;;;;;;6.23;65.87;100768.19;5066803;28;20491;-57
2021/12/11 02:35:31;;;;;;;21.42;15.10;;;;;;;6.22;66.02;100778.03;5064099;28;20053;-57
2021/12/11 02:38:09;;;;;;;22.85;15.13;;;;;;;6.20;65.85;100785.41;5067973;28;20152;-57
2021/12/11 02:40:42;;;;;;;23.33;15.48;;;;;;;6.20;66.03;100786.25;5065919;28;20053;-60
2021/12/11 02:43:14;;;;;;;25.88;16.90;;;;;;;6.22;65.89;100779.88;5068190;28;20087;-60
2021/12/11 02:45:46;;;;;;;25.75;15.02;;;;;;;6.20;65.59;100793.41;5071228;28;20059;-58
2021/12/11 02:48:19;;;;;;;24.02;16.42;;;;;;;6.20;65.78;100793.41;5066473;28;20053;-57
2021/12/11 02:50:52;;;;;;;24.65;16.42;;;;;;;6.19;66.04;100795.25;5064343;28;20068;-58
2021/12/11 02:53:26;;;;;;;24.63;16.17;;;;;;;6.18;65.83;100806.97;5056760;28;20045;-57
2021/12/11 02:56:03;;;;;;;21.92;15.23;;;;;;;6.18;65.83;100812.28;5060724;28;20060;-59
2021/12/11 02:58:32;;;;;;;;;;;;;;;6.18;65.96;100811.47;5064979;28;20084;-57
2021/12/11 03:01:06;;;;;;;23.65;14.80;;;;;;;6.15;66.24;100820.69;5072249;28;19921;-57
2021/12/11 03:03:40;;;;;;;20.77;15.07;;;;;;;6.17;65.84;100820.50;5067689;28;20144;-57
2021/12/11 03:06:16;;;;;;;22.90;15.48;;;;;;;6.14;65.90;100819.03;5063170;28;20059;-57
2021/12/11 03:08:45;;;;;;;25.27;15.13;;;;;;;6.15;66.23;100823.34;5065957;28;20056;-57
2021/12/11 03:11:16;;;;;;;24.60;15.77;;;;;;;6.16;65.86;100826.84;5068424;28;20089;-58
2021/12/11 03:13:50;;;;;;;24.70;17.90;;;;;;;6.06;65.81;100821.84;5067649;28;20072;-58
2021/12/11 03:16:20;;;;;;;24.58;15.70;;;;;;;6.13;66.13;100832.56;5062843;28;20053;-58
2021/12/11 03:18:49;;;;;;;22.45;14.90;;;;;;;6.12;66.11;100833.59;5075243;28;20052;-58
2021/12/11 03:21:16;;;;;;;22.92;14.68;;;;;;;6.11;66.11;100840.78;5063040;28;20053;-57
2021/12/11 03:23:46;;;;;;;22.50;15.60;;;;;;;6.11;66.12;100854.09;5058433;28;20044;-58
2021/12/11 03:26:14;;;;;;;22.48;15.65;;;;;;;6.10;66.18;100857.78;5075230;28;20470;-57
2021/12/11 03:28:42;;;;;;;23.58;15.55;;;;;;;6.10;66.18;100857.78;5066930;28;20056;-58
2021/12/11 03:31:11;;;;;;;21.42;15.32;;;;;;;6.11;65.76;100858.63;5062472;28;20075;-57
2021/12/11 03:33:43;;;;;;;23.20;15.13;;;;;;;6.10;66.25;100860.47;5063571;28;20094;-58
2021/12/11 03:36:16;;;;;;;22.83;16.13;;;;;;;6.10;66.04;100857.78;5058582;28;20052;-58
2021/12/11 03:38:50;;;;;;;24.50;15.90;;;;;;;6.09;66.27;100860.66;5067207;28;20151;-57
2021/12/11 03:41:20;;;;;;;20.60;14.98;;;;;;;6.09;66.24;100864.16;5063074;28;20048;-57
2021/12/11 03:43:48;;;;;;;21.95;14.85;;;;;;;6.11;66.13;100874.63;5066755;28;20060;-58
2021/12/11 03:46:17;;;;;;;22.10;15.98;;;;;;;6.11;65.99;100869.28;5068322;28;20095;-57
2021/12/11 03:48:48;;;;;;;22.77;14.95;;;;;;;6.11;66.10;100875.47;5073643;28;20143;-57
2021/12/11 03:51:19;;;;;;;24.13;16.02;;;;;;;6.10;66.25;100868.47;5064891;28;20040;-56
2021/12/11 03:53:48;;;;;;;22.80;15.60;;;;;;;6.09;66.45;100882.00;5067874;28;20063;-58
2021/12/11 03:56:18;;;;;;;23.15;15.35;;;;;;;6.08;66.05;100875.84;5075992;28;20073;-58
2021/12/11 03:58:50;;;;;;;22.55;15.50;;;;;;;6.08;66.60;100878.50;5074606;28;20044;-55
2021/12/11 04:01:24;;;;;;;22.83;14.98;;;;;;;6.08;66.40;100883.00;5061998;28;20049;-58
2021/12/11 04:03:56;;;;;;;22.15;15.07;;;;;;;6.06;66.52;100877.03;5072127;28;20120;-58
2021/12/11 04:06:24;;;;;;;23.48;14.88;;;;;;;6.09;66.10;100884.66;5066752;28;20060;-57
2021/12/11 04:08:56;;;;;;;21.05;15.10;;;;;;;5.98;66.46;100871.84;5069899;28;20057;-57
2021/12/11 04:11:27;;;;;;;21.80;14.43;;;;;;;6.06;66.60;100891.22;5059150;28;20055;-55
2021/12/11 04:13:58;;;;;;;21.08;14.57;;;;;;;6.09;66.23;100892.66;5062555;28;20059;-57
2021/12/11 04:16:27;;;;;;;28.77;15.52;;;;;;;6.02;66.65;100889.94;5065895;28;20045;-58
2021/12/11 04:18:56;;;;;;;24.35;14.98;;;;;;;6.09;66.46;100901.50;5066853;28;20087;-57
2021/12/11 04:21:24;;;;;;;22.35;14.88;;;;;;;6.09;66.48;100908.69;5066778;28;20051;-58
2021/12/11 04:23:54;;;;;;;21.70;14.98;;;;;;;6.09;66.35;100914.00;5066126;28;21589;-58
2021/12/11 04:26:22;;;;;;;26.10;14.30;;;;;;;6.08;66.60;100913.19;5056952;28;20052;-58
2021/12/11 04:28:50;;;;;;;21.10;14.35;;;;;;;5.98;66.28;100901.19;5051988;28;20045;-57
2021/12/11 04:31:22;;;;;;;20.73;14.35;;;;;;;6.07;66.90;100922.22;5074006;28;20044;-58
2021/12/11 04:33:52;;;;;;;18.73;13.57;;;;;;;6.08;66.76;100925.72;5052792;28;20053;-57
2021/12/11 04:36:23;;;;;;;22.23;13.93;;;;;;;6.07;66.93;100932.88;5053100;28;20049;-56
2021/12/11 04:38:54;;;;;;;21.00;15.70;;;;;;;6.07;66.60;100934.72;5066414;28;20041;-58
2021/12/11 04:41:30;;;;;;;20.83;14.07;;;;;;;6.08;66.74;100939.03;5061392;28;20045;-57
2021/12/11 04:44:01;;;;;;;21.45;14.80;;;;;;;6.07;67.05;100932.88;5072469;28;20044;-57
2021/12/11 04:46:29;;;;;;;22.67;14.38;;;;;;;6.07;67.06;100940.88;5069215;28;20056;-57
2021/12/11 04:49:04;;;;;;;20.13;14.10;;;;;;;6.08;66.74;100945.22;5047592;28;20435;-57
2021/12/11 04:51:40;;;;;;;21.80;14.25;;;;;;;6.08;67.12;100944.38;5060537;28;20140;-57
2021/12/11 04:54:26;;;;;;;20.63;14.52;;;;;;;6.07;67.20;100946.22;5068117;28;20040;-58
2021/12/11 04:59:54;;;;;;;21.85;15.27;;;;;;;6.08;66.97;100966.56;5074536;28;20135;-58
2021/12/11 05:02:56;;;;;;;23.42;15.68;;;;;;;6.07;67.00;100964.91;5066715;28;20045;-58
2021/12/11 05:05:41;;;;;;;21.42;15.40;;;;;;;6.08;67.02;100971.88;5065912;28;20077;-58
2021/12/11 05:08:36;;;;;;;21.65;14.35;;;;;;;6.09;67.17;100976.22;5066610;28;20121;-58
2021/12/11 05:11:08;;;;;;;22.13;14.18;;;;;;;6.07;66.99;100980.06;5068869;28;20105;-58
2021/12/11 05:13:36;;;;;;;18.60;13.85;;;;;;;6.08;67.51;100973.72;5072674;28;20044;-58
2021/12/11 05:16:08;;;;;;;20.58;14.10;;;;;;;6.06;67.48;100979.25;5077557;28;20079;-58
2021/12/11 05:18:38;;;;;;;21.98;13.60;;;;;;;6.07;67.15;100983.56;5074744;28;20067;-58
2021/12/11 05:21:11;;;;;;;23.52;14.50;;;;;;;6.00;66.92;100968.50;5070521;28;20070;-58
2021/12/11 05:23:40;;;;;;;22.85;14.82;;;;;;;6.10;67.31;100982.38;5082356;28;20061;-58
2021/12/11 05:26:09;;;;;;;18.92;13.43;;;;;;;6.09;67.01;100991.38;5066568;28;20045;-58
2021/12/11 05:28:37;;;;;;;20.08;14.60;;;;;;;6.07;67.29;100996.91;5071691;28;20493;-58
2021/12/11 05:31:08;;;;;;;21.27;13.50;;;;;;;6.07;67.12;101004.91;5065856;28;20076;-58
2021/12/11 05:33:38;;;;;;;23.13;14.65;;;;;;;6.10;67.68;101007.22;5067464;28;20053;-57
2021/12/11 05:36:09;;;;;;;19.80;14.02;;;;;;;6.10;67.51;101011.72;5068793;28;20059;-58
2021/12/11 05:38:39;;;;;;;21.15;13.30;;;;;;;6.00;67.22;101005.84;5075383;28;20060;-58
2021/12/11 05:41:13;;;;;;;21.63;13.43;;;;;;;6.09;67.46;101020.75;5066776;28;20040;-57
2021/12/11 05:43:42;;;;;;;22.30;13.65;;;;;;;6.10;67.48;101017.88;5075525;28;20158;-57
2021/12/11 05:46:11;;;;;;;21.98;13.93;;;;;;;6.10;67.55;101027.72;5071275;28;20049;-62
2021/12/11 05:48:41;;;;;;;22.25;13.98;;;;;;;6.09;67.38;101026.06;5058625;28;20067;-58
2021/12/11 05:51:12;;;;;;;20.95;14.20;;;;;;;6.08;67.47;101030.59;5062462;28;20053;-58
2021/12/11 05:53:40;;;;;;;20.52;13.48;;;;;;;6.09;67.40;101023.41;5072797;28;20060;-58
2021/12/11 05:56:12;;;;;;;21.23;14.48;;;;;;;6.09;67.58;101023.41;5061030;28;20077;-59
2021/12/11 05:58:56;;;;;;;19.85;14.35;;;;;;;6.09;67.77;101031.41;5064516;28;20065;-57
2021/12/11 06:01:29;;;;;;;20.10;13.93;;;;;;;6.08;67.66;101030.59;5061780;28;20065;-59
2021/12/11 06:04:00;;;;;;;18.65;13.15;;;;;;;6.16;67.67;101042.97;5057898;28;20064;-59
2021/12/11 06:06:28;;;;;;;19.75;13.77;;;;;;;6.28;67.13;101046.81;5064780;28;20111;-59
2021/12/11 06:08:56;;;;;;;21.33;14.55;;;;;;;6.43;66.79;101039.59;5075318;28;20045;-55
2021/12/11 06:11:25;;;;;;;20.48;13.10;;;;;;;6.56;66.29;101041.56;5066001;28;20486;-58
2021/12/11 06:13:53;;;;;;;19.98;12.40;;;;;;;6.72;65.65;101035.13;5074471;28;20045;-59
2021/12/11 06:16:21;;;;;;;20.38;13.27;;;;;;;6.81;65.24;101040.16;5074744;28;20114;-56
2021/12/11 06:18:49;;;;;;;19.35;13.07;;;;;;;6.78;65.33;101048.56;5073378;28;20048;-58
2021/12/11 06:21:18;;;;;;;19.75;13.10;;;;;;;6.75;65.61;101048.94;4357134;28;10000724;-56
2021/12/11 06:23:46;;;;;;;18.23;12.32;;;;;;;6.73;66.03;101056.31;5056735;28;20083;-58
2021/12/11 06:26:14;;;;;;;19.08;12.80;;;;;;;6.73;65.56;101071.50;5073071;28;20075;-58
2021/12/11 06:28:43;;;;;;;19.20;13.35;;;;;;;6.88;65.45;101074.94;5064399;28;20115;-60
2021/12/11 06:31:18;;;;;;;19.75;11.65;;;;;;;6.99;65.04;101065.53;5071971;28;20048;-59
2021/12/11 06:33:48;;;;;;;17.38;11.45;;;;;;;7.15;64.70;101076.78;5076906;28;20044;-58
2021/12/11 06:36:17;;;;;;;15.77;11.75;;;;;;;7.26;64.35;101083.44;5067390;28;20087;-58
2021/12/11 06:38:51;;;;;;;17.17;12.13;;;;;;;7.38;63.67;101083.72;5063252;28;20079;-58
2021/12/11 06:41:23;;;;;;;18.60;12.77;;;;;;;7.51;63.40;101091.84;5064452;28;20060;-57
2021/12/11 06:43:53;;;;;;;19.20;12.20;;;;;;;7.66;63.02;101089.06;5060643;28;20146;-57
2021/12/11 06:46:21;;;;;;;16.77;11.55;;;;;;;7.65;62.87;101100.78;5061202;28;20060;-58
2021/12/11 06:48:49;;;;;;;16.80;11.27;;;;;;;7.56;62.47;101102.78;5065740;28;20075;-57
2021/12/11 06:51:17;;;;;;;16.88;11.77;;;;;;;7.44;63.60;101099.00;5066032;28;20049;-57
2021/12/11 06:53:51;;;;;;;18.55;13.63;;;;;;;7.24;65.05;101103.38;5060614;28;20653;-57
2021/12/11 06:56:22;;;;;;;19.75;13.52;;;;;;;7.05;66.05;101113.69;5057936;28;20080;-56
2021/12/11 06:58:52;;;;;;;21.20;13.90;;;;;;;6.95;66.72;101129.22;5059767;28;20462;-57
2021/12/11 07:01:22;;;;;;;19.20;13.25;;;;;;;6.88;66.40;101130.22;5059749;28;20057;-60
2021/12/11 07:03:50;;;;;;;18.13;12.43;;;;;;;6.84;66.65;101127.91;5063933;28;20069;-56
2021/12/11 07:06:19;;;;;;;18.58;11.73;;;;;;;6.80;66.86;101141.84;5065870;28;20056;-56
2021/12/11 07:08:49;;;;;;;22.05;13.23;;;;;;;6.75;66.70;101133.56;5058667;28;20049;-55
2021/12/11 07:11:18;;;;;;;22.88;13.93;;;;;;;6.67;67.14;101139.88;5066552;28;20049;-55
2021/12/11 07:13:46;;;;;;;18.92;13.18;;;;;;;6.66;67.24;101138.22;5072890;28;20057;-58
2021/12/11 07:16:16;;;;;;;18.23;13.73;;;;;;;6.64;66.97;101137.56;5058970;28;20053;-57
2021/12/11 07:18:44;;;;;;;17.40;12.80;;;;;;;6.61;67.24;101137.94;5059618;28;20053;-57
2021/12/11 07:21:12;;;;;;;18.38;12.52;;;;;;;6.60;67.32;101148.81;5054475;28;20041;-56
2021/12/11 07:23:45;;;;;;;20.40;12.63;;;;;;;6.49;67.49;101134.94;5046259;28;20053;-57
2021/12/11 07:26:17;;;;;;;20.80;13.57;;;;;;;6.51;67.77;101151.59;5059683;28;20056;-56
2021/12/11 07:28:48;;;;;;;17.17;12.65;;;;;;;6.51;68.01;101158.78;5059174;28;20059;-57
2021/12/11 07:31:17;;;;;;;18.42;13.18;;;;;;;6.49;67.89;101161.63;5052575;28;20057;-56
2021/12/11 07:33:46;;;;;;;20.15;13.93;;;;;;;6.48;67.60;101175.19;5059494;28;20048;-57
2021/12/11 07:36:14;;;;;;;19.23;12.98;;;;;;;6.47;68.05;101170.84;5059025;28;20087;-59
2021/12/11 07:38:42;;;;;;;18.40;12.85;;;;;;;6.44;67.90;101176.56;5062565;28;20117;-58
2021/12/11 07:41:13;;;;;;;18.92;12.90;;;;;;;6.33;68.61;101164.53;5057836;28;20084;-59
2021/12/11 07:43:42;;;;;;;22.02;13.68;;;;;;;6.43;68.59;101180.25;5066759;28;20124;-58
2021/12/11 07:46:14;;;;;;;19.00;13.07;;;;;;;6.42;68.44;101192.78;5066385;28;20119;-57
2021/12/11 07:48:45;;;;;;;19.17;13.38;;;;;;;6.40;68.89;101205.47;5047621;28;20422;-58
2021/12/11 07:51:14;;;;;;;21.92;15.48;;;;;;;6.39;68.63;101193.16;5065558;28;20500;-58
2021/12/11 07:53:43;;;;;;;16.77;12.75;;;;;;;6.41;68.49;101204.47;5065341;28;20081;-58
2021/12/11 07:56:12;;;;;;;19.65;12.77;;;;;;;6.40;68.51;101201.97;5067549;28;20090;-57
2021/12/11 07:58:40;;;;;;;20.75;12.82;;;;;;;6.30;71.21;101210.28;5071836;28;20064;-59
2021/12/11 08:01:09;;;;;;;21.77;12.40;;;;;;;6.37;69.85;101213.03;5071294;28;20083;-60
2021/12/11 08:03:37;;;;;;;17.02;11.98;;;;;;;6.54;69.40;101222.50;5073321;28;20179;-58
2021/12/11 08:06:08;;;;;;;18.58;12.55;;;;;;;6.72;68.61;101214.09;5068522;28;20087;-53
2021/12/11 08:08:38;;;;;;;18.75;10.32;;;;;;;6.90;67.89;101227.84;5072715;28;20048;-58
2021/12/11 08:11:11;;;;;;;24.40;10.48;;;;;;;7.07;68.42;101223.91;5069382;28;20071;-58
2021/12/11 08:13:40;;;;;;;13.73;9.60;;;;;;;7.16;67.99;101209.41;5071492;28;20064;-58
2021/12/11 08:16:08;;;;;;;16.63;9.20;;;;;;;7.37;67.44;101240.66;5073819;28;20045;-58
2021/12/11 08:18:36;;;;;;;18.92;9.70;;;;;;;7.51;66.71;101231.75;5066863;28;20045;-58
2021/12/11 08:21:06;;;;;;;13.70;8.02;;;;;;;7.67;65.87;101235.16;5065569;28;20037;-58
2021/12/11 08:23:42;;;;;;;15.95;8.48;;;;;;;7.82;65.11;101236.72;5064772;28;20048;-59
2021/12/11 08:26:14;;;;;;;14.50;8.27;;;;;;;7.97;65.01;101244.66;5064228;28;20072;-59
2021/12/11 08:28:42;;;;;;;14.55;7.90;;;;;;;8.02;64.36;101249.44;5068514;28;20072;-57
2021/12/11 08:31:11;;;;;;;18.27;8.27;;;;;;;8.09;64.27;101251.13;5064958;28;20072;-59
2021/12/11 08:33:39;;;;;;;15.27;8.45;;;;;;;8.15;64.09;101253.03;5067137;28;20147;-58
2021/12/11 08:36:11;;;;;;;14.68;7.15;;;;;;;8.13;64.23;101254.25;5066009;28;20053;-58
2021/12/11 08:38:39;;;;;;;12.23;6.25;;;;;;;7.98;64.45;101270.41;5064912;28;20441;-58
2021/12/11 08:41:11;;;;;;;14.02;6.72;;;;;;;7.79;65.17;101263.88;5065233;28;20150;-66
2021/12/11 08:43:39;;;;;;;13.35;5.90;;;;;;;7.61;65.46;101258.16;5052945;28;20049;-59
2021/12/11 08:46:13;;;;;;;12.20;5.63;;;;;;;7.58;66.65;101273.75;5068857;28;20056;-58
2021/12/11 08:48:45;;;;;;;12.93;5.38;;;;;;;7.47;67.06;101283.13;5071565;28;20066;-59
2021/12/11 08:51:18;;;;;;;17.38;5.53;;;;;;;7.39;67.33;101289.44;5065242;28;20161;-59
2021/12/11 08:53:47;;;;;;;11.68;5.93;;;;;;;7.31;68.01;101296.75;5065423;28;20056;-58
2021/12/11 08:56:19;;;;;;;16.25;4.90;;;;;;;7.27;68.41;101298.97;5064046;28;20059;-60
2021/12/11 08:58:49;;;;;;;11.25;4.47;;;;;;;7.13;68.79;101289.97;5065362;28;20138;-59
2021/12/11 09:01:24;;;;;;;19.42;5.60;;;;;;;7.16;69.26;101302.13;5062011;28;20548;-58
2021/12/11 09:03:56;;;;;;;17.98;5.22;;;;;;;7.12;68.97;101307.03;5062281;28;20126;-56
2021/12/11 09:06:31;;;;;;;16.27;5.30;;;;;;;7.09;69.70;101318.09;5062726;28;20053;-54
2021/12/11 09:09:05;;;;;;;12.70;3.83;;;;;;;7.07;69.80;101320.13;5061656;28;20099;-58
2021/12/11 09:11:37;;;;;;;12.02;4.00;;;;;;;7.05;69.59;101327.50;5057799;28;20077;-57
2021/12/11 09:14:09;;;;;;;18.20;4.28;;;;;;;7.03;69.76;101337.53;5062211;28;20049;-56
2021/12/11 09:16:42;;;;;;;22.98;4.75;;;;;;;6.96;69.98;101330.44;5061219;28;20574;-58
2021/12/11 09:19:13;;;;;;;12.40;3.53;;;;;;;7.00;70.22;101340.59;5061994;28;20564;-58
2021/12/11 09:21:47;;;;;;;12.20;3.63;;;;;;;6.97;70.87;101351.66;5055019;28;20077;-60
2021/12/11 09:24:23;;;;;;;19.65;4.45;;;;;;;6.95;71.00;101352.84;5058560;28;20048;-57
2021/12/11 09:26:54;;;;;;;19.55;3.88;;;;;;;6.96;71.53;101365.19;5054207;28;20085;-58
2021/12/11 09:29:28;;;;;;;14.85;4.07;;;;;;;6.94;71.05;101365.38;5061889;28;20080;-59
2021/12/11 09:32:08;;;;;;;15.65;3.65;;;;;;;6.93;71.65;101373.59;5061075;28;20071;-58
2021/12/11 09:34:43;;;;;;;9.88;2.53;;;;;;;6.92;71.74;101370.09;5062059;28;20264;-59
2021/12/11 09:37:15;;;;;;;10.82;3.28;;;;;;;6.93;71.76;101385.13;5061733;28;20284;-64
2021/12/11 09:39:48;;;;;;;18.50;3.40;;;;;;;6.92;71.92;101385.31;5062067;28;20056;-64
2021/12/11 09:42:15;;;;;;;11.23;3.08;;;;;;;6.92;71.66;101390.66;5061671;28;20099;-64
2021/12/11 09:44:49;;;;;;;16.88;3.67;;;;;;;6.92;71.91;101402.16;5061753;28;20060;-62
2021/12/11 09:47:22;;;;;;;11.30;3.42;;;;;;;6.92;72.43;101402.16;5060729;28;20048;-65
2021/12/11 09:49:58;;;;;;;16.08;3.90;;;;;;;6.93;72.44;101409.16;5061546;28;20135;-62
2021/12/11 09:52:28;;;;;;;15.02;2.53;;;;;;;6.92;72.88;101404.84;5065857;28;20061;-63
2021/12/11 09:54:59;;;;;;;14.55;3.33;;;;;;;6.94;72.59;101418.81;5061665;28;20049;-63
2021/12/11 09:57:32;;;;;;;13.45;3.08;;;;;;;6.86;72.89;101405.56;5049151;28;20087;-64
2021/12/11 10:00:09;;;;;;;11.05;2.55;;;;;;;6.96;72.75;101419.47;5064098;28;20088;-63
2021/12/11 10:02:38;;;;;;;9.63;3.03;;;;;;;6.95;73.03;101427.66;5063911;28;20064;-63
2021/12/11 10:05:29;;;;;;;10.98;2.78;;;;;;;6.97;72.50;101423.78;5072018;28;20056;-63
2021/12/11 10:08:25;;;;;;;11.95;2.35;;;;;;;6.96;73.21;101430.16;5064519;28;20049;-63
2021/12/11 10:10:52;;;;;;;14.88;2.83;;;;;;;6.97;72.75;101437.16;5051405;28;20049;-63
2021/12/11 10:13:20;;;;;;;20.17;3.53;;;;;;;6.99;72.64;101429.78;5063315;28;20045;-62
2021/12/11 10:15:49;;;;;;;17.50;3.75;;;;;;;7.00;73.12;101442.13;5063606;28;20060;-63
2021/12/11 10:18:22;;;;;;;11.93;3.08;;;;;;;7.03;73.09;101443.59;5064509;28;20048;-63
2021/12/11 10:20:54;;;;;;;14.80;2.80;;;;;;;7.01;73.17;101454.47;5070237;28;20049;-63
2021/12/11 10:23:26;;;;;;;16.15;3.22;;;;;;;7.02;72.44;101456.13;5064346;28;20068;-63
2021/12/11 10:25:57;;;;;;;16.58;3.60;;;;;;;7.03;73.32;101454.28;5064493;28;20048;-63
2021/12/11 10:28:28;;;;;;;13.80;4.20;;;;;;;7.04;73.06;101453.28;5063628;28;20087;-63
2021/12/11 10:30:59;;;;;;;13.18;2.83;;;;;;;7.05;72.67;101462.97;5063146;28;20060;-63
2021/12/11 10:33:31;;;;;;;11.10;3.00;;;;;;;7.04;73.03;101463.97;5062619;28;20463;-63
2021/12/11 10:36:03;;;;;;;13.60;2.85;;;;;;;7.03;73.40;101468.50;5065224;28;20095;-63
2021/12/11 10:38:31;;;;;;;11.10;3.60;;;;;;;7.06;73.16;101470.78;5064172;28;20052;-63
2021/12/11 10:41:19;;;;;;;14.63;3.15;;;;;;;7.05;72.87;101469.13;5063373;28;20048;-64
2021/12/11 10:43:53;;;;;;;12.68;2.67;;;;;;;7.08;73.14;101476.78;5064533;28;20064;-63
2021/12/11 10:46:26;;;;;;;14.52;3.13;;;;;;;7.08;73.17;101474.13;5062974;28;20049;-66
2021/12/11 10:48:55;;;;;;;13.65;2.35;;;;;;;7.08;73.05;101487.47;5064209;28;20060;-62
2021/12/11 10:51:26;;;;;;;13.15;2.63;;;;;;;7.09;73.48;101494.47;5063810;28;20064;-63
2021/12/11 10:53:57;;;;;;;17.30;2.83;;;;;;;7.08;73.11;101486.66;5053369;28;20091;-64
2021/12/11 10:56:26;;;;;;;12.98;2.60;;;;;;;7.08;73.68;101500.00;5059640;28;20049;-63
2021/12/11 10:58:58;;;;;;;14.15;3.38;;;;;;;7.09;73.84;101513.19;5064571;28;20048;-63
2021/12/11 11:01:30;;;;;;;9.70;2.55;;;;;;;7.10;73.55;101500.66;5062548;28;20048;-63
2021/12/11 11:04:02;;;;;;;14.55;4.47;;;;;;;7.09;73.76;101501.66;5068103;28;20044;-63
2021/12/11 11:06:30;;;;;;;14.32;2.75;;;;;;;7.12;73.92;101510.16;5064107;28;20056;-63
2021/12/11 11:08:58;;;;;;;15.13;2.90;;;;;;;7.14;73.79;101509.97;5063729;28;20049;-62
2021/12/11 11:11:30;;;;;;;18.63;3.88;;;;;;;7.14;74.04;101526.00;5062210;28;20052;-53
2021/12/11 11:14:01;;;;;;;17.40;3.65;;;;;;;7.15;73.50;101527.66;4711224;28;10001721;-63
2021/12/11 11:16:31;;;;;;;13.20;3.15;;;;;;;7.15;73.98;101531.16;5057268;28;20049;-63
2021/12/11 11:18:59;;;;;;;10.55;3.80;;;;;;;7.19;74.01;101545.00;5052269;28;20419;-63
2021/12/11 11:21:31;;;;;;;12.13;3.20;;;;;;;7.19;73.71;101548.50;5062386;28;20361;-61
2021/12/11 11:23:59;;;;;;;15.10;3.30;;;;;;;7.21;74.10;101542.16;5059148;28;20079;-62
2021/12/11 11:26:31;;;;;;;10.75;2.63;;;;;;;7.20;73.87;101549.34;5059961;28;20178;-62
2021/12/11 11:29:00;;;;;;;20.73;3.95;;;;;;;7.21;74.27;101552.84;5065835;28;20049;-63
2021/12/11 11:31:36;;;;;;;17.25;4.10;;;;;;;7.21;74.42;101559.00;5058710;28;20121;-62
2021/12/11 11:34:06;;;;;;;9.90;2.63;;;;;;;7.21;74.24;101558.19;5066878;28;20064;-63
2021/12/11 11:36:36;;;;;;;10.60;3.38;;;;;;;7.23;73.91;101566.84;5059340;28;20080;-63
2021/12/11 11:39:09;;;;;;;19.25;3.90;;;;;;;7.23;73.89;101562.34;5059209;28;20254;-63
2021/12/11 11:41:40;;;;;;;15.75;3.30;;;;;;;7.23;74.30;101562.34;5062229;28;20056;-63